Time;durP1;ratioP1;P1;durP2;ratioP2;P2;SDS_P1;SDS_P2;PMS_P1;PMS_P2;Temp;Humidity;BMP_temperature;BMP_pressure;BME280_temperature;BME280_humidity;BME280_pressure;Samples;Min_cycle;Max_cycle;Signal;HPM_P1;HPM_P2
2021/10/19 00:00:15;;;;;;;5.97;3.17;;;6.60;98.00;;;;;;6249531;23;20354;-71
2021/10/19 00:02:42;;;;;;;6.57;2.88;;;6.60;98.00;;;;;;6222525;23;20105;-71
2021/10/19 00:05:09;;;;;;;5.65;3.10;;;7.00;98.00;;;;;;6249540;23;20370;-70
2021/10/19 00:07:38;;;;;;;4.80;2.05;;;7.30;98.00;;;;;;6249382;23;20278;-70
2021/10/19 00:10:06;;;;;;;6.28;2.13;;;7.60;98.00;;;;;;6249430;23;20004;-70
2021/10/19 00:12:32;;;;;;;5.38;2.60;;;7.80;98.00;;;;;;6247792;23;20031;-70
2021/10/19 00:14:58;;;;;;;4.53;2.20;;;7.80;98.00;;;;;;6249277;23;20083;-70
2021/10/19 00:17:23;;;;;;;6.15;2.58;;;7.80;98.00;;;;;;6248598;23;20309;-71
2021/10/19 00:19:50;;;;;;;5.68;2.38;;;7.80;98.00;;;;;;6249234;23;20001;-71
2021/10/19 00:22:16;;;;;;;6.40;3.20;;;7.70;98.00;;;;;;6249424;23;20258;-70
2021/10/19 00:24:42;;;;;;;6.55;3.17;;;7.60;98.00;;;;;;6249512;23;20000;-70
2021/10/19 00:27:07;;;;;;;6.80;3.00;;;7.50;98.00;;;;;;6247649;23;20008;-71
2021/10/19 00:29:33;;;;;;;5.65;3.05;;;7.30;98.00;;;;;;6248982;23;20087;-71
2021/10/19 00:31:59;;;;;;;6.43;3.40;;;7.10;98.00;;;;;;6222283;23;20004;-70
2021/10/19 00:34:25;;;;;;;7.60;4.07;;;7.00;98.00;;;;;;6249034;23;20321;-70
2021/10/19 00:36:51;;;;;;;8.55;4.28;;;6.80;98.00;;;;;;6222305;23;20000;-69
2021/10/19 00:39:17;;;;;;;6.80;4.10;;;6.60;98.00;;;;;;6249058;23;20412;-71
2021/10/19 00:41:43;;;;;;;7.40;4.65;;;6.50;98.00;;;;;;6248292;23;20012;-71
2021/10/19 00:44:09;;;;;;;7.05;4.28;;;6.30;98.00;;;;;;6246921;23;20076;-70
2021/10/19 00:46:35;;;;;;;7.38;4.35;;;6.20;98.00;;;;;;6248762;23;20102;-71
2021/10/19 00:49:01;;;;;;;7.20;4.25;;;6.00;98.00;;;;;;6248746;23;20019;-70
2021/10/19 00:51:27;;;;;;;7.93;4.30;;;6.00;98.00;;;;;;6248635;23;20362;-70
2021/10/19 00:53:53;;;;;;;8.50;4.10;;;6.00;98.00;;;;;;6249244;23;20015;-71
2021/10/19 00:56:18;;;;;;;6.45;3.70;;;6.10;98.00;;;;;;6248747;23;19992;-70
2021/10/19 00:58:45;;;;;;;6.45;3.42;;;6.20;98.00;;;;;;6247327;23;20000;-70
2021/10/19 01:01:11;;;;;;;5.88;3.10;;;6.40;98.00;;;;;;6248484;23;20564;-70
2021/10/19 01:03:36;;;;;;;7.70;3.30;;;6.50;98.00;;;;;;6249171;23;19996;-70
2021/10/19 01:06:05;;;;;;;5.78;3.13;;;6.70;98.00;;;;;;6222068;23;20035;-70
2021/10/19 01:08:33;;;;;;;5.50;2.85;;;6.90;98.00;;;;;;6248831;23;20011;-69
2021/10/19 01:10:59;;;;;;;5.00;2.20;;;7.20;98.00;;;;;;6248896;23;20484;-69
2021/10/19 01:13:24;;;;;;;4.80;2.55;;;7.50;98.00;;;;;;6247167;23;20011;-70
2021/10/19 01:15:50;;;;;;;6.05;2.75;;;7.80;97.30;;;;;;6248619;23;20000;-70
2021/10/19 01:18:17;;;;;;;5.60;2.58;;;8.00;96.30;;;;;;6248328;23;20004;-70
2021/10/19 01:20:44;;;;;;;4.35;2.10;;;8.20;95.50;;;;;;6248257;23;20075;-70
2021/10/19 01:23:13;;;;;;;3.42;1.88;;;8.30;95.10;;;;;;6249041;23;19996;-70
2021/10/19 01:25:39;;;;;;;4.57;1.85;;;8.30;95.60;;;;;;6249194;23;20007;-70
2021/10/19 01:28:09;;;;;;;4.80;2.28;;;8.30;94.80;;;;;;6247381;23;20496;-70
2021/10/19 01:30:43;;;;;;;3.13;1.83;;;8.40;95.20;;;;;;6248937;23;20262;-70
2021/10/19 01:33:10;;;;;;;;;;;8.50;94.30;;;;;;6248811;23;20011;-70
2021/10/19 01:35:36;;;;;;;6.15;2.00;;;8.60;93.80;;;;;;6248552;23;20250;-70
2021/10/19 01:38:04;;;;;;;4.88;2.20;;;8.80;91.90;;;;;;6248569;23;20429;-69
2021/10/19 01:40:30;;;;;;;6.55;1.92;;;9.00;92.00;;;;;;6248861;23;20278;-70
2021/10/19 01:42:56;;;;;;;5.88;2.65;;;9.10;91.40;;;;;;6246948;23;20012;-70
2021/10/19 01:45:22;;;;;;;4.50;2.13;;;9.30;90.90;;;;;;6248074;23;20034;-70
2021/10/19 01:47:50;;;;;;;3.38;1.77;;;9.60;88.40;;;;;;6248378;23;20023;-70
2021/10/19 01:50:17;;;;;;;3.97;1.80;;;10.00;85.80;;;;;;6248540;23;20031;-70
2021/10/19 01:52:43;;;;;;;4.22;2.00;;;10.30;86.10;;;;;;6248641;23;20388;-70
2021/10/19 01:55:11;;;;;;;4.93;2.58;;;10.40;85.30;;;;;;6221526;23;20452;-70
2021/10/19 01:57:37;;;;;;;4.65;2.53;;;10.30;88.30;;;;;;6246835;23;20046;-69
2021/10/19 02:00:08;;;;;;;4.30;2.05;;;10.10;90.10;;;;;;6248421;23;19997;-70
2021/10/19 02:02:34;;;;;;;5.30;2.30;;;9.90;88.90;;;;;;6248520;23;20016;-69
2021/10/19 02:04:59;;;;;;;3.78;1.95;;;9.90;88.60;;;;;;6248493;23;20062;-70
2021/10/19 02:07:25;;;;;;;3.83;1.60;;;10.20;85.20;;;;;;6248725;23;20004;-70
2021/10/19 02:09:51;;;;;;;6.35;1.77;;;10.70;81.40;;;;;;6248408;23;20032;-69
2021/10/19 02:12:17;;;;;;;3.75;1.60;;;11.20;80.60;;;;;;6220315;23;20062;-69
2021/10/19 02:14:43;;;;;;;3.78;1.50;;;11.40;79.50;;;;;;6248120;23;20014;-68
2021/10/19 02:17:08;;;;;;;3.40;1.73;;;11.60;78.80;;;;;;6248165;23;20004;-70
2021/10/19 02:19:34;;;;;;;3.53;1.70;;;11.70;79.20;;;;;;6248262;23;20000;-68
2021/10/19 02:21:59;;;;;;;3.10;1.40;;;11.80;78.00;;;;;;6247895;23;20011;-70
2021/10/19 02:24:25;;;;;;;4.45;1.77;;;11.90;76.70;;;;;;6247914;23;20042;-70
2021/10/19 02:26:51;;;;;;;4.22;1.60;;;11.90;78.80;;;;;;6248345;23;20000;-70
2021/10/19 02:29:20;;;;;;;3.72;1.90;;;11.70;78.20;;;;;;6246585;23;20405;-70
2021/10/19 02:31:46;;;;;;;3.88;1.80;;;11.80;79.10;;;;;;6248739;23;20008;-70
2021/10/19 02:34:14;;;;;;;4.03;1.73;;;11.70;80.10;;;;;;6248013;23;20004;-70
2021/10/19 02:36:39;;;;;;;3.28;1.60;;;11.60;79.50;;;;;;6248437;23;20016;-70
2021/10/19 02:39:06;;;;;;;5.20;2.63;;;11.60;80.50;;;;;;6248561;23;20004;-69
2021/10/19 02:41:36;;;;;;;4.75;2.65;;;11.50;83.90;;;;;;6248242;23;20024;-70
2021/10/19 02:44:03;;;;;;;5.10;3.08;;;11.00;87.40;;;;;;6246486;23;20071;-71
2021/10/19 02:46:31;;;;;;;5.07;2.90;;;10.50;89.50;;;;;;6247975;23;20010;-67
2021/10/19 02:48:58;;;;;;;5.93;3.20;;;10.20;90.30;;;;;;6248251;23;20054;-70
2021/10/19 02:51:23;;;;;;;6.43;3.13;;;10.00;91.70;;;;;;6248091;23;20000;-71
2021/10/19 02:53:56;;;;;;;4.68;2.35;;;9.80;92.50;;;;;;6248175;23;20004;-70
2021/10/19 02:56:22;;;;;;;4.85;2.40;;;9.70;92.80;;;;;;6248502;23;20378;-70
2021/10/19 02:58:49;;;;;;;3.83;2.17;;;9.80;91.50;;;;;;6246287;23;20039;-70
2021/10/19 03:01:15;;;;;;;4.43;2.05;;;10.00;90.60;;;;;;6247326;23;20361;-70
2021/10/19 03:03:41;;;;;;;4.43;1.95;;;10.10;89.70;;;;;;6248743;23;20408;-70
2021/10/19 03:06:06;;;;;;;5.00;2.10;;;10.30;88.90;;;;;;6248431;23;20008;-70
2021/10/19 03:08:35;;;;;;;4.25;1.95;;;10.40;88.50;;;;;;6249842;23;20073;-69
2021/10/19 03:11:02;;;;;;;5.68;2.33;;;10.60;87.90;;;;;;6250333;23;20298;-70
2021/10/19 03:13:28;;;;;;;4.05;2.17;;;10.70;88.00;;;;;;6248614;23;20004;-69
2021/10/19 03:15:55;;;;;;;4.05;2.33;;;10.70;88.20;;;;;;6250101;23;20374;-70
2021/10/19 03:18:20;;;;;;;7.70;2.63;;;10.70;87.60;;;;;;6249870;23;20004;-72
2021/10/19 03:20:46;;;;;;;8.48;2.33;;;10.70;87.70;;;;;;6249724;23;20000;-70
2021/10/19 03:23:12;;;;;;;5.28;2.47;;;10.70;88.40;;;;;;6249753;23;20027;-70
2021/10/19 03:25:38;;;;;;;4.85;2.33;;;10.70;88.80;;;;;;6249687;23;20028;-69
2021/10/19 03:28:04;;;;;;;5.00;2.72;;;10.60;89.70;;;;;;6248520;23;20062;-69
2021/10/19 03:30:30;;;;;;;6.50;2.80;;;10.50;90.00;;;;;;6250335;23;20004;-70
2021/10/19 03:32:56;;;;;;;5.38;2.70;;;10.50;89.80;;;;;;6249860;23;20000;-70
2021/10/19 03:35:26;;;;;;;5.43;2.97;;;10.40;89.90;;;;;;6250028;23;20397;-70
2021/10/19 03:37:53;;;;;;;5.85;2.47;;;10.40;89.70;;;;;;6249506;23;20071;-70
2021/10/19 03:40:18;;;;;;;4.85;2.50;;;10.40;90.00;;;;;;6249568;23;20001;-70
2021/10/19 03:42:47;;;;;;;7.75;2.50;;;10.40;89.80;;;;;;6247988;23;20271;-70
2021/10/19 03:45:15;;;;;;;5.03;2.80;;;10.30;91.20;;;;;;6249517;23;20106;-69
2021/10/19 03:47:41;;;;;;;5.43;2.40;;;10.20;91.20;;;;;;6249532;23;20004;-70
2021/10/19 03:50:08;;;;;;;4.40;2.50;;;10.20;90.90;;;;;;6249348;23;20034;-72
2021/10/19 03:52:34;;;;;;;3.47;2.00;;;10.30;90.60;;;;;;6249589;23;20067;-69
2021/10/19 03:54:59;;;;;;;4.75;2.13;;;10.30;91.10;;;;;;6249147;23;20032;-70
2021/10/19 03:57:25;;;;;;;3.92;2.03;;;10.40;89.80;;;;;;6248329;23;20005;-70
2021/10/19 03:59:51;;;;;;;5.10;2.33;;;10.40;90.50;;;;;;6249593;23;20058;-70
2021/10/19 04:02:16;;;;;;;4.85;2.15;;;10.30;91.20;;;;;;6249401;23;20008;-70
2021/10/19 04:04:42;;;;;;;4.70;2.03;;;10.30;91.80;;;;;;6250042;23;20420;-71
2021/10/19 04:07:08;;;;;;;5.32;2.15;;;10.30;91.80;;;;;;6249774;23;20354;-70
2021/10/19 04:09:33;;;;;;;4.15;2.10;;;10.30;92.30;;;;;;6249338;23;20058;-71
2021/10/19 04:11:59;;;;;;;3.78;2.03;;;10.30;91.20;;;;;;6248216;23;20007;-69
2021/10/19 04:14:25;;;;;;;4.53;2.33;;;10.30;91.20;;;;;;6249193;23;20091;-70
2021/10/19 04:16:50;;;;;;;10.55;5.30;;;10.30;91.10;;;;;;6256833;22;20024;-71
2021/10/19 04:19:18;;;;;;;6.70;3.10;;;10.40;91.50;;;;;;6279390;22;20026;-71
2021/10/19 04:21:47;;;;;;;5.13;2.50;;;10.30;91.30;;;;;;6280134;22;20006;-71
2021/10/19 04:24:14;;;;;;;5.25;1.90;;;10.40;91.00;;;;;;6280102;22;20063;-71
2021/10/19 04:26:40;;;;;;;5.97;2.03;;;10.40;91.70;;;;;;6253452;22;20034;-70
2021/10/19 04:29:06;;;;;;;3.78;1.92;;;10.50;91.70;;;;;;6279217;22;20268;-70
2021/10/19 04:31:31;;;;;;;4.57;2.60;;;10.50;91.30;;;;;;6253157;22;20010;-70
2021/10/19 04:33:59;;;;;;;4.65;2.50;;;10.50;91.30;;;;;;6280421;22;20011;-70
2021/10/19 04:36:26;;;;;;;4.20;2.33;;;10.50;91.50;;;;;;6280189;22;20003;-70
2021/10/19 04:38:52;;;;;;;4.28;2.08;;;10.40;92.30;;;;;;6280097;22;20306;-70
2021/10/19 04:41:18;;;;;;;4.53;2.20;;;10.40;92.00;;;;;;6280137;22;20007;-70
2021/10/19 04:43:43;;;;;;;4.85;2.15;;;10.40;92.10;;;;;;6278922;22;20007;-70
2021/10/19 04:46:09;;;;;;;3.58;1.75;;;10.60;91.00;;;;;;6279601;22;20307;-70
2021/10/19 04:48:35;;;;;;;3.88;2.00;;;10.60;91.10;;;;;;6280130;22;20311;-71
2021/10/19 04:51:04;;;;;;;4.00;2.00;;;10.60;91.40;;;;;;6280001;22;20015;-70
2021/10/19 04:53:31;;;;;;;4.13;2.10;;;10.50;91.90;;;;;;6279941;22;20010;-70
2021/10/19 04:55:58;;;;;;;5.70;2.90;;;10.50;91.90;;;;;;6279843;22;20006;-70
2021/10/19 04:58:24;;;;;;;4.78;2.20;;;10.40;92.90;;;;;;6277981;22;20006;-71
2021/10/19 05:00:50;;;;;;;4.75;2.22;;;10.50;92.30;;;;;;6280525;22;19996;-71
2021/10/19 05:03:17;;;;;;;8.38;4.13;;;10.50;91.60;;;;;;6280298;22;20071;-70
2021/10/19 05:05:43;;;;;;;5.25;2.22;;;10.60;91.70;;;;;;6279680;22;20058;-70
2021/10/19 05:08:09;;;;;;;7.57;4.95;;;10.70;91.00;;;;;;6280024;22;20003;-70
2021/10/19 05:10:35;;;;;;;4.25;2.10;;;10.70;90.40;;;;;;6280055;22;20000;-70
2021/10/19 05:13:02;;;;;;;4.00;1.95;;;10.80;89.90;;;;;;6278822;22;20241;-70
2021/10/19 05:15:28;;;;;;;4.55;1.92;;;10.90;91.00;;;;;;6279499;22;20241;-68
2021/10/19 05:17:53;;;;;;;4.65;1.92;;;10.80;91.00;;;;;;6278733;22;20054;-70
2021/10/19 05:20:19;;;;;;;4.00;2.00;;;10.80;90.70;;;;;;6279184;22;20026;-70
2021/10/19 05:22:47;;;;;;;4.78;2.20;;;10.80;90.00;;;;;;6278587;22;20296;-71
2021/10/19 05:25:14;;;;;;;5.32;2.47;;;10.80;90.40;;;;;;6253004;22;20003;-70
2021/10/19 05:27:40;;;;;;;5.15;3.00;;;10.70;92.10;;;;;;6278385;22;20038;-71
2021/10/19 05:30:06;;;;;;;5.93;2.72;;;10.50;93.20;;;;;;6278760;22;20268;-69
2021/10/19 05:32:32;;;;;;;4.57;2.25;;;10.40;94.10;;;;;;6278873;22;20003;-69
2021/10/19 05:34:58;;;;;;;6.50;2.95;;;10.50;93.40;;;;;;6278243;22;20053;-69
2021/10/19 05:37:23;;;;;;;6.55;2.92;;;10.40;94.00;;;;;;6251305;22;20372;-70
2021/10/19 05:39:49;;;;;;;5.85;2.67;;;10.30;94.40;;;;;;6278698;22;20104;-70
2021/10/19 05:42:15;;;;;;;6.00;2.92;;;10.20;94.70;;;;;;6277745;22;20434;-70
2021/10/19 05:44:41;;;;;;;7.50;3.85;;;10.10;95.00;;;;;;6278678;22;20037;-69
2021/10/19 05:47:07;;;;;;;14.05;3.67;;;10.10;95.70;;;;;;6279812;22;20230;-70
2021/10/19 05:49:33;;;;;;;8.18;3.55;;;9.90;96.40;;;;;;6279836;22;19999;-70
2021/10/19 05:51:58;;;;;;;10.27;3.58;;;9.90;97.40;;;;;;6279696;22;20306;-71
2021/10/19 05:54:25;;;;;;;8.32;3.80;;;9.70;98.00;;;;;;6280041;22;20000;-71
2021/10/19 05:56:54;;;;;;;6.90;3.63;;;9.60;98.00;;;;;;6279913;22;20041;-70
2021/10/19 05:59:20;;;;;;;6.75;2.97;;;9.50;98.00;;;;;;6279625;22;19995;-69
2021/10/19 06:01:46;;;;;;;5.72;3.03;;;9.50;98.00;;;;;;6279924;22;20038;-70
2021/10/19 06:04:12;;;;;;;6.97;3.53;;;9.40;98.00;;;;;;6279411;22;20057;-70
2021/10/19 06:06:38;;;;;;;5.25;2.78;;;9.50;98.00;;;;;;6279949;22;19999;-70
2021/10/19 06:09:04;;;;;;;5.03;2.85;;;9.50;98.00;;;;;;6279962;22;20078;-71
2021/10/19 06:11:30;;;;;;;4.68;2.67;;;9.50;98.00;;;;;;6279752;22;20008;-70
2021/10/19 06:13:55;;;;;;;5.55;2.85;;;9.60;98.00;;;;;;6278071;22;20444;-70
2021/10/19 06:16:21;;;;;;;5.45;3.10;;;9.60;98.00;;;;;;6279519;22;20007;-70
2021/10/19 06:18:47;;;;;;;5.25;2.60;;;9.60;98.00;;;;;;6279619;22;20007;-70
2021/10/19 06:21:13;;;;;;;5.40;2.78;;;9.70;98.00;;;;;;6279536;22;20340;-70
2021/10/19 06:23:39;;;;;;;4.15;2.25;;;9.80;98.00;;;;;;6279547;22;20049;-70
2021/10/19 06:26:05;;;;;;;4.90;2.55;;;9.90;98.00;;;;;;6279807;22;20030;-71
2021/10/19 06:28:36;;;;;;;4.45;2.35;;;10.00;98.00;;;;;;6278335;22;20421;-70
2021/10/19 06:31:05;;;;;;;4.80;2.10;;;10.10;98.00;;;;;;6279766;22;20003;-70
2021/10/19 06:33:31;;;;;;;4.72;2.30;;;10.30;98.00;;;;;;6279471;22;20003;-70
2021/10/19 06:35:59;;;;;;;5.75;2.20;;;10.40;97.60;;;;;;6280088;22;20034;-70
2021/10/19 06:38:27;;;;;;;4.50;2.28;;;10.50;97.90;;;;;;6277436;22;20008;-70
2021/10/19 06:40:53;;;;;;;4.13;2.08;;;10.50;97.60;;;;;;6279111;22;20000;-70
2021/10/19 06:43:18;;;;;;;8.93;2.28;;;10.70;97.90;;;;;;6279118;22;20004;-68
2021/10/19 06:45:47;;;;;;;4.15;1.95;;;10.90;93.90;;;;;;6281838;22;20016;-70
2021/10/19 06:48:12;;;;;;;5.10;2.10;;;11.00;94.80;;;;;;6254479;22;20043;-69
2021/10/19 06:50:39;;;;;;;4.38;1.80;;;11.20;94.70;;;;;;6281964;22;19999;-70
2021/10/19 06:53:05;;;;;;;4.30;2.08;;;11.30;93.10;;;;;;6281671;22;20071;-69
2021/10/19 06:55:30;;;;;;;7.53;1.92;;;11.40;95.40;;;;;;6281743;22;20050;-69
2021/10/19 06:57:57;;;;;;;4.07;1.85;;;11.40;94.80;;;;;;6280203;22;20328;-69
2021/10/19 07:00:24;;;;;;;4.55;2.20;;;11.50;95.60;;;;;;6281551;22;20027;-68
2021/10/19 07:02:49;;;;;;;4.32;2.22;;;11.50;95.70;;;;;;6281619;22;19996;-68
2021/10/19 07:05:16;;;;;;;6.82;2.60;;;11.50;96.40;;;;;;6281464;22;20082;-67
2021/10/19 07:07:42;;;;;;;6.30;3.38;;;11.50;96.10;;;;;;6254931;22;20008;-68
2021/10/19 07:10:10;;;;;;;7.65;3.03;;;11.50;94.80;;;;;;6281715;22;20418;-70
2021/10/19 07:12:37;;;;;;;5.20;3.10;;;11.60;95.20;;;;;;6280120;22;20027;-71
2021/10/19 07:15:04;;;;;;;5.07;2.20;;;11.80;90.70;;;;;;6282063;22;20011;-70
2021/10/19 07:17:29;;;;;;;4.88;2.38;;;12.00;88.80;;;;;;6280997;22;20276;-70
2021/10/19 07:19:55;;;;;;;4.80;2.05;;;12.20;87.30;;;;;;6281618;22;19996;-69
2021/10/19 07:22:21;;;;;;;4.50;2.03;;;12.40;86.50;;;;;;6281672;22;20023;-70
2021/10/19 07:24:47;;;;;;;3.45;1.45;;;12.60;85.30;;;;;;6281352;22;20003;-70
2021/10/19 07:27:12;;;;;;;6.63;2.75;;;12.80;84.70;;;;;;6279859;22;20329;-70
2021/10/19 07:29:38;;;;;;;5.45;2.25;;;12.90;87.70;;;;;;6281537;22;20376;-70
2021/10/19 07:32:05;;;;;;;3.92;1.92;;;12.70;89.10;;;;;;6281293;22;20000;-70
2021/10/19 07:34:30;;;;;;;5.68;2.28;;;12.60;88.80;;;;;;6281178;22;20004;-70
2021/10/19 07:36:57;;;;;;;4.60;1.92;;;12.70;89.40;;;;;;6281417;22;20126;-70
2021/10/19 07:39:23;;;;;;;5.35;2.10;;;12.70;89.30;;;;;;6281625;22;19996;-70
2021/10/19 07:41:49;;;;;;;4.53;2.05;;;12.80;88.40;;;;;;6281096;22;20006;-69
2021/10/19 07:44:14;;;;;;;4.60;2.00;;;12.70;88.90;;;;;;6280281;22;20049;-71
2021/10/19 07:46:40;;;;;;;4.13;2.08;;;12.80;87.00;;;;;;6281245;22;20464;-70
2021/10/19 07:49:07;;;;;;;4.10;1.88;;;12.70;90.60;;;;;;6281129;22;19996;-70
2021/10/19 07:51:33;;;;;;;4.47;1.98;;;12.50;90.50;;;;;;6281544;22;20060;-70
2021/10/19 07:53:58;;;;;;;4.95;2.22;;;12.50;93.20;;;;;;6281005;22;20029;-70
2021/10/19 07:56:26;;;;;;;5.72;2.53;;;12.40;95.40;;;;;;6281274;22;20070;-71
2021/10/19 07:58:52;;;;;;;4.35;2.28;;;12.30;96.20;;;;;;6279713;22;20003;-70
2021/10/19 08:01:18;;;;;;;4.63;2.50;;;12.30;96.60;;;;;;6280840;22;20004;-71
2021/10/19 08:03:44;;;;;;;5.75;2.63;;;12.30;97.20;;;;;;6281214;22;20019;-70
2021/10/19 08:06:09;;;;;;;4.05;2.30;;;12.40;97.00;;;;;;6281091;22;20011;-70
2021/10/19 08:08:37;;;;;;;4.28;2.20;;;12.50;97.50;;;;;;6281150;22;20034;-70
2021/10/19 08:11:04;;;;;;;79.43;27.30;;;12.70;96.00;;;;;;6281123;22;20038;-70
2021/10/19 08:13:30;;;;;;;23.23;10.23;;;12.80;96.50;;;;;;6279359;22;20080;-71
2021/10/19 08:16:02;;;;;;;14.25;7.47;;;12.50;96.80;;;;;;6253964;22;20006;-70
2021/10/19 08:18:29;;;;;;;8.25;4.53;;;12.30;96.50;;;;;;6280875;22;20093;-70
2021/10/19 08:20:54;;;;;;;7.25;4.18;;;12.10;96.60;;;;;;6280845;22;20311;-70
2021/10/19 08:23:21;;;;;;;7.55;4.22;;;11.90;96.20;;;;;;6281079;22;20026;-69
2021/10/19 08:25:47;;;;;;;6.65;3.58;;;12.00;96.30;;;;;;6280993;22;20387;-72
2021/10/19 08:28:47;;;;;;;6.57;3.33;;;12.30;93.70;;;;;;6279455;22;20078;-70
2021/10/19 08:31:15;;;;;;;4.15;1.98;;;12.60;92.00;;;;;;6280979;22;20004;-70
2021/10/19 08:33:43;;;;;;;5.85;2.35;;;13.10;86.80;;;;;;6281209;22;20004;-70
2021/10/19 08:36:10;;;;;;;4.70;2.05;;;13.50;85.40;;;;;;6280980;22;20238;-70
2021/10/19 08:38:35;;;;;;;5.18;1.75;;;13.90;83.80;;;;;;6280782;22;19996;-70
2021/10/19 08:41:01;;;;;;;4.22;1.70;;;14.40;80.60;;;;;;6280720;22;20023;-69
2021/10/19 08:43:27;;;;;;;3.50;1.60;;;15.00;74.00;;;;;;6279277;22;20038;-70
2021/10/19 08:45:59;;;;;;;9.68;4.05;;;15.60;70.00;;;;;;6280796;22;20054;-70
2021/10/19 08:48:27;;;;;;;6.50;3.30;;;15.80;74.10;;;;;;6280699;22;20319;-72
2021/10/19 08:50:58;;;;;;;8.80;4.63;;;15.50;80.40;;;;;;6280469;22;20000;-70
2021/10/19 08:53:25;;;;;;;9.63;4.70;;;14.80;84.70;;;;;;6280899;22;20245;-70
2021/10/19 08:55:51;;;;;;;9.40;4.90;;;14.00;89.10;;;;;;6280630;22;20006;-70
2021/10/19 08:58:17;;;;;;;9.48;4.88;;;13.80;89.70;;;;;;6278977;22;20014;-70
2021/10/19 09:00:43;;;;;;;13.55;5.53;;;13.70;91.20;;;;;;6280639;22;20349;-70
2021/10/19 09:03:09;;;;;;;9.52;5.15;;;13.30;91.10;;;;;;6280584;22;19999;-69
2021/10/19 09:05:35;;;;;;;8.52;4.88;;;12.70;92.40;;;;;;6280081;22;20360;-69
2021/10/19 09:08:04;;;;;;;7.95;4.47;;;12.60;93.20;;;;;;6280165;22;20050;-70
2021/10/19 09:10:35;;;;;;;11.50;4.72;;;12.80;92.80;;;;;;6280937;22;20007;-70
2021/10/19 09:13:04;;;;;;;8.55;4.75;;;13.20;92.20;;;;;;6278721;22;20007;-70
2021/10/19 09:15:31;;;;;;;9.02;4.57;;;13.20;90.20;;;;;;6280452;22;20075;-69
2021/10/19 09:18:05;;;;;;;12.65;4.82;;;13.10;90.60;;;;;;6280336;22;20085;-70
2021/10/19 09:20:36;;;;;;;8.90;3.88;;;13.10;91.60;;;;;;6280290;22;20261;-70
2021/10/19 09:23:03;;;;;;;10.40;3.92;;;12.90;91.70;;;;;;6280333;22;20000;-69
2021/10/19 09:25:35;;;;;;;9.27;4.45;;;13.00;92.50;;;;;;6280410;22;20049;-70
2021/10/19 09:28:04;;;;;;;8.38;4.38;;;13.00;92.90;;;;;;6278689;22;20427;-70
2021/10/19 09:30:47;;;;;;;10.15;4.18;;;12.90;94.00;;;;;;6280189;22;20000;-70
2021/10/19 09:33:20;;;;;;;7.82;4.10;;;12.70;94.00;;;;;;6280246;22;19999;-70
2021/10/19 09:35:51;;;;;;;8.40;4.60;;;12.50;95.60;;;;;;6279953;22;20060;-71
2021/10/19 09:38:17;;;;;;;11.35;4.63;;;12.40;97.00;;;;;;6280250;22;20133;-71
2021/10/19 09:40:49;;;;;;;8.65;4.72;;;12.20;97.90;;;;;;6280185;22;20299;-71
2021/10/19 09:43:27;;;;;;;7.95;4.50;;;12.10;98.00;;;;;;6278641;22;20003;-71
2021/10/19 09:45:55;;;;;;;8.90;4.30;;;12.10;98.00;;;;;;6280311;22;20004;-71
2021/10/19 09:48:27;;;;;;;19.10;9.80;;;12.00;98.00;;;;;;6279909;22;20003;-70
2021/10/19 09:50:54;;;;;;;12.60;6.97;;;11.90;98.00;;;;;;6279488;22;20264;-70
2021/10/19 09:53:23;;;;;;;9.82;5.43;;;11.80;98.00;;;;;;6279769;22;20386;-70
2021/10/19 09:55:50;;;;;;;11.57;6.50;;;11.70;98.00;;;;;;6279533;22;20007;-69
2021/10/19 09:58:18;;;;;;;12.23;6.45;;;11.70;98.00;;;;;;6278651;22;20010;-69
2021/10/19 10:00:47;;;;;;;10.80;6.55;;;11.60;98.00;;;;;;6280097;22;20071;-69
2021/10/19 10:03:14;;;;;;;15.60;8.25;;;11.60;98.00;;;;;;6280025;22;19996;-69
2021/10/19 10:05:41;;;;;;;18.20;8.80;;;11.50;98.00;;;;;;6279746;22;20026;-71
2021/10/19 10:08:13;;;;;;;9.35;4.30;;;11.50;98.00;;;;;;6279218;22;20369;-71
2021/10/19 10:10:39;;;;;;;9.25;5.38;;;11.60;98.00;;;;;;6279614;22;20046;-70
2021/10/19 10:13:07;;;;;;;4.78;2.50;;;11.70;98.00;;;;;;6251611;22;20011;-71
2021/10/19 10:15:35;;;;;;;9.80;2.67;;;11.80;98.00;;;;;;6279492;22;20003;-71
2021/10/19 10:18:05;;;;;;;4.32;2.45;;;11.80;98.00;;;;;;6252781;22;20026;-71
2021/10/19 10:20:39;;;;;;;4.45;2.05;;;12.00;98.00;;;;;;6279825;22;20003;-71
2021/10/19 10:23:19;;;;;;;4.78;2.28;;;12.20;98.00;;;;;;6279224;22;19995;-71
2021/10/19 10:25:48;;;;;;;4.60;2.10;;;12.10;98.00;;;;;;6279585;22;20004;-72
2021/10/19 10:28:26;;;;;;;3.83;2.22;;;12.00;98.00;;;;;;6251411;22;20008;-71
2021/10/19 10:30:52;;;;;;;5.65;2.78;;;12.10;98.00;;;;;;6279686;22;20356;-71
2021/10/19 10:33:18;;;;;;;6.60;2.70;;;12.00;98.00;;;;;;6279859;22;20352;-72
2021/10/19 10:35:46;;;;;;;6.38;2.80;;;11.90;98.00;;;;;;6280103;22;20003;-72
2021/10/19 10:38:13;;;;;;;5.63;2.15;;;11.80;98.00;;;;;;6279437;22;20033;-72
2021/10/19 10:40:41;;;;;;;5.55;2.17;;;11.80;98.00;;;;;;6279726;22;20446;-71
2021/10/19 10:43:20;;;;;;;4.90;2.40;;;11.80;98.00;;;;;;6278340;22;20004;-72
2021/10/19 10:45:48;;;;;;;5.80;3.08;;;11.80;98.00;;;;;;6252733;22;20014;-72
2021/10/19 10:48:17;;;;;;;4.72;2.53;;;11.70;98.00;;;;;;6279428;22;20246;-72
2021/10/19 10:50:42;;;;;;;8.32;3.35;;;11.80;98.00;;;;;;6227690;22;20250;-72
2021/10/19 10:53:12;;;;;;;5.05;2.70;;;11.80;98.00;;;;;;6279573;22;20004;-72
2021/10/19 10:55:44;;;;;;;5.80;2.75;;;11.80;98.00;;;;;;6279752;22;20007;-71
2021/10/19 10:58:25;;;;;;;13.25;5.35;;;11.80;98.00;;;;;;6277995;22;20068;-72
2021/10/19 11:00:52;;;;;;;6.18;2.70;;;11.80;98.00;;;;;;6279445;22;19996;-70
2021/10/19 11:03:20;;;;;;;8.00;3.13;;;11.90;98.00;;;;;;6252783;22;20380;-71
2021/10/19 11:06:00;;;;;;;6.38;3.60;;;11.90;98.00;;;;;;6279680;22;20000;-72
2021/10/19 11:08:26;;;;;;;5.78;3.72;;;11.90;98.00;;;;;;6279582;22;20003;-71
2021/10/19 11:11:02;;;;;;;7.22;2.40;;;11.90;98.00;;;;;;6279456;22;20305;-72
2021/10/19 11:13:28;;;;;;;5.75;2.67;;;11.90;98.00;;;;;;6251096;22;20007;-72
2021/10/19 11:15:56;;;;;;;6.28;3.63;;;11.90;98.00;;;;;;6279571;22;20047;-71
2021/10/19 11:18:25;;;;;;;7.10;3.35;;;12.00;98.00;;;;;;6279372;22;20351;-70
2021/10/19 11:20:57;;;;;;;6.88;2.70;;;12.10;98.00;;;;;;6252237;22;20000;-72
2021/10/19 11:23:23;;;;;;;8.25;2.70;;;12.20;98.00;;;;;;6252531;22;20446;-71
2021/10/19 11:25:49;;;;;;;6.22;2.72;;;12.30;98.00;;;;;;6279407;22;20000;-71
2021/10/19 11:28:15;;;;;;;5.05;2.28;;;12.50;98.00;;;;;;6278199;22;20007;-71
2021/10/19 11:30:41;;;;;;;4.20;2.28;;;12.60;98.00;;;;;;6281298;22;20372;-71
2021/10/19 11:33:07;;;;;;;5.97;2.42;;;12.70;98.00;;;;;;6281193;22;20011;-71
2021/10/19 11:35:33;;;;;;;4.40;2.20;;;12.90;98.00;;;;;;6281281;22;20460;-71
2021/10/19 11:37:59;;;;;;;8.25;2.30;;;13.00;96.40;;;;;;6281128;22;20023;-71
2021/10/19 11:40:25;;;;;;;5.25;2.58;;;13.10;96.30;;;;;;6281159;22;20003;-72
2021/10/19 11:42:54;;;;;;;9.98;3.00;;;13.20;95.10;;;;;;6280057;22;20056;-71
2021/10/19 11:45:26;;;;;;;5.93;2.70;;;13.40;94.60;;;;;;6280782;22;20004;-71
2021/10/19 11:47:54;;;;;;;7.25;2.80;;;13.50;95.70;;;;;;6281300;22;20342;-71
2021/10/19 11:50:29;;;;;;;5.72;2.28;;;13.50;96.20;;;;;;6281315;22;20003;-72
2021/10/19 11:52:56;;;;;;;5.85;2.55;;;13.60;95.80;;;;;;6281032;22;20242;-71
2021/10/19 11:55:23;;;;;;;4.90;2.50;;;13.70;93.90;;;;;;6281000;22;19999;-71
2021/10/19 11:57:50;;;;;;;4.20;2.13;;;13.80;95.40;;;;;;6279871;22;20074;-71
2021/10/19 12:00:17;;;;;;;4.95;2.50;;;13.80;95.30;;;;;;6280864;22;20004;-71
2021/10/19 12:02:50;;;;;;;5.20;2.50;;;13.80;93.70;;;;;;6281375;22;19996;-71
2021/10/19 12:05:16;;;;;;;7.10;3.85;;;13.90;95.30;;;;;;6281070;22;19999;-71
2021/10/19 12:07:50;;;;;;;7.57;3.50;;;13.90;95.00;;;;;;6280979;22;20010;-71
2021/10/19 12:10:27;;;;;;;5.38;2.88;;;14.10;95.50;;;;;;6254074;22;20278;-72
2021/10/19 12:13:08;;;;;;;6.47;3.67;;;14.10;95.30;;;;;;6252796;22;20004;-69
2021/10/19 12:15:36;;;;;;;5.32;2.85;;;14.10;95.30;;;;;;6281069;22;20094;-71
2021/10/19 12:18:15;;;;;;;7.75;3.00;;;14.10;95.60;;;;;;6280796;22;20015;-71
2021/10/19 12:20:41;;;;;;;5.60;3.60;;;14.20;94.00;;;;;;6280865;22;20010;-71
2021/10/19 12:23:10;;;;;;;5.65;2.58;;;14.30;93.90;;;;;;6253878;22;20271;-71
2021/10/19 12:25:42;;;;;;;5.78;2.70;;;14.30;94.00;;;;;;6280800;22;20383;-71
2021/10/19 12:28:19;;;;;;;7.50;4.13;;;14.30;92.60;;;;;;6279260;22;20070;-71
2021/10/19 12:30:46;;;;;;;4.95;2.80;;;14.40;93.30;;;;;;6280585;22;20000;-71
2021/10/19 12:33:23;;;;;;;5.00;2.55;;;14.30;92.80;;;;;;6281060;22;19999;-71
2021/10/19 12:36:04;;;;;;;5.28;2.90;;;14.20;93.10;;;;;;6280361;22;20257;-70
2021/10/19 12:38:34;;;;;;;6.40;2.63;;;14.10;93.60;;;;;;6253866;22;20407;-70
2021/10/19 12:41:11;;;;;;;4.80;2.35;;;14.10;89.80;;;;;;6280249;22;20032;-70
2021/10/19 12:43:38;;;;;;;5.70;2.70;;;14.20;91.40;;;;;;6279329;22;20376;-70
2021/10/19 12:46:08;;;;;;;5.20;2.40;;;14.20;91.80;;;;;;6280494;22;20006;-70
2021/10/19 12:48:40;;;;;;;5.10;2.25;;;14.40;91.20;;;;;;6253960;22;19995;-69